Time;durP1;ratioP1;P1;durP2;ratioP2;P2;SDS_P1;SDS_P2;PMS_P1;PMS_P2;Temp;Humidity;BMP_temperature;BMP_pressure;BME280_temperature;BME280_humidity;BME280_pressure;Samples;Min_cycle;Max_cycle;Signal;HPM_P1;HPM_P2
2023/10/14 00:01:14;;;;;;;6.50;5.60;;;;;;;16.78;100.00;99483.59;6167140;28;20230;-69
2023/10/14 00:04:35;;;;;;;7.60;5.87;;;;;;;16.78;100.00;99483.59;6156744;28;20258;-69
2023/10/14 00:07:56;;;;;;;10.63;7.27;;;;;;;16.77;100.00;99560.81;6162547;28;20221;-69
2023/10/14 00:11:17;;;;;;;6.07;1.80;;;;;;;15.49;100.00;99550.97;6156784;28;20234;-70
2023/10/14 00:14:38;;;;;;;2.80;0.80;;;;;;;14.97;100.00;99550.56;6156329;28;20234;-69
2023/10/14 00:18:01;;;;;;;1.50;1.10;;;;;;;14.72;100.00;99568.28;6153401;28;20235;-69
2023/10/14 00:21:23;;;;;;;5.37;1.50;;;;;;;14.70;100.00;99567.66;6156757;28;20230;-69
2023/10/14 00:24:48;;;;;;;0.83;0.83;;;;;;;14.62;100.00;99563.22;6157392;28;20238;-68
2023/10/14 00:28:12;;;;;;;1.27;1.00;;;;;;;14.51;100.00;99544.72;6162362;28;20242;-68
2023/10/14 00:31:34;;;;;;;2.93;0.80;;;;;;;14.48;100.00;99542.41;6168240;28;20324;-69
2023/10/14 00:34:56;;;;;;;1.93;0.70;;;;;;;14.40;100.00;99543.38;6162158;28;20222;-69
2023/10/14 00:38:17;;;;;;;1.43;1.13;;;;;;;14.50;100.00;99558.50;6168078;28;20234;-69
2023/10/14 00:41:37;;;;;;;0.67;0.67;;;;;;;14.53;100.00;99569.78;6157898;28;20234;-68
2023/10/14 00:44:58;;;;;;;1.03;0.77;;;;;;;14.41;100.00;99584.91;6161782;28;20242;-69
2023/10/14 00:48:27;;;;;;;2.57;0.97;;;;;;;14.44;100.00;99581.78;6167654;28;20235;-69
2023/10/14 00:51:52;;;;;;;2.73;1.13;;;;;;;14.32;100.00;99596.88;6158351;28;20225;-68
2023/10/14 00:55:13;;;;;;;2.33;1.23;;;;;;;14.30;100.00;99607.94;6156311;28;20227;-69
2023/10/14 00:58:40;;;;;;;2.30;1.10;;;;;;;14.39;100.00;99608.66;6178250;28;20636;-70
2023/10/14 01:02:02;;;;;;;8.87;1.57;;;;;;;14.30;100.00;99613.34;6175036;28;20225;-70
2023/10/14 01:05:23;;;;;;;1.73;1.63;;;;;;;14.32;100.00;99607.72;6176689;28;20322;-70
2023/10/14 01:08:49;;;;;;;2.70;1.20;;;;;;;14.44;100.00;99592.63;6158197;28;20338;-69
2023/10/14 01:12:19;;;;;;;1.57;1.20;;;;;;;14.30;100.00;99601.66;6165265;28;20608;-70
2023/10/14 01:15:44;;;;;;;5.13;1.10;;;;;;;14.47;100.00;99594.13;6170935;28;20238;-69
2023/10/14 01:19:05;;;;;;;5.20;1.30;;;;;;;14.53;100.00;99609.63;6173480;28;20575;-70
2023/10/14 01:22:29;;;;;;;4.17;1.70;;;;;;;14.39;100.00;99623.03;6152920;28;20231;-69
2023/10/14 01:25:52;;;;;;;2.60;1.00;;;;;;;14.50;100.00;99620.88;6170941;28;20234;-69
2023/10/14 01:29:14;;;;;;;3.23;1.10;;;;;;;14.47;100.00;99600.41;6149426;28;20317;-69
2023/10/14 01:32:48;;;;;;;2.07;1.83;;;;;;;14.10;100.00;99604.09;6185619;28;20243;-69
2023/10/14 01:36:11;;;;;;;7.97;1.87;;;;;;;14.32;100.00;99592.31;6156277;28;20237;-69
2023/10/14 01:39:33;;;;;;;1.67;1.07;;;;;;;14.26;100.00;99590.34;6165131;28;20231;-70
2023/10/14 01:42:57;;;;;;;1.43;1.00;;;;;;;14.14;100.00;99594.53;6169522;28;20250;-67
2023/10/14 01:46:19;;;;;;;3.37;1.30;;;;;;;14.43;100.00;99609.09;6162476;28;20234;-69
2023/10/14 01:49:40;;;;;;;4.50;1.60;;;;;;;14.43;100.00;99610.75;6176350;28;20501;-69
2023/10/14 01:53:08;;;;;;;5.73;1.87;;;;;;;14.32;100.00;99614.00;6164943;28;20235;-69
2023/10/14 01:56:30;;;;;;;3.53;1.80;;;;;;;14.33;100.00;99609.41;6172544;28;20246;-69
2023/10/14 01:59:52;;;;;;;2.77;1.43;;;;;;;14.40;100.00;99623.88;6168393;28;20238;-69
2023/10/14 02:03:12;;;;;;;3.90;1.40;;;;;;;14.24;100.00;99630.34;6171265;28;20234;-69
2023/10/14 02:06:33;;;;;;;5.27;2.13;;;;;;;14.14;100.00;99640.63;6168237;28;20258;-69
2023/10/14 02:09:56;;;;;;;11.83;3.17;;;;;;;14.07;100.00;99652.41;6164514;28;20535;-69
2023/10/14 02:13:19;;;;;;;4.03;1.50;;;;;;;14.05;100.00;99659.91;6164286;28;20599;-70
2023/10/14 02:16:44;;;;;;;1.30;1.10;;;;;;;14.06;100.00;99672.44;6145684;28;20624;-69
2023/10/14 02:20:20;;;;;;;4.37;1.47;;;;;;;14.07;100.00;99679.53;6154308;28;20238;-68
2023/10/14 02:23:47;;;;;;;2.27;1.40;;;;;;;13.98;100.00;99686.06;6159430;28;20834;-69
2023/10/14 02:27:11;;;;;;;2.77;1.03;;;;;;;13.89;100.00;99696.16;6157281;28;20320;-69
2023/10/14 02:30:34;;;;;;;3.20;1.00;;;;;;;13.87;100.00;99709.03;6156698;28;20227;-69
2023/10/14 02:33:55;;;;;;;4.43;2.13;;;;;;;13.91;100.00;99707.66;6160754;28;20223;-69
2023/10/14 02:37:16;;;;;;;3.27;1.10;;;;;;;13.99;100.00;99715.69;6171384;28;20234;-68
2023/10/14 02:40:38;;;;;;;3.80;1.73;;;;;;;14.00;100.00;99717.38;6169189;28;20235;-69
2023/10/14 02:44:19;;;;;;;1.87;0.97;;;;;;;13.76;100.00;99717.63;6165537;28;20738;-69
2023/10/14 02:47:41;;;;;;;0.90;0.87;;;;;;;13.91;100.00;99733.91;6157119;28;20226;-69
2023/10/14 02:51:06;;;;;;;2.27;0.83;;;;;;;13.71;100.00;99746.28;6154832;28;20230;-70
2023/10/14 02:54:27;;;;;;;2.33;1.03;;;;;;;13.56;100.00;99746.25;6158697;28;20242;-69
2023/10/14 02:57:48;;;;;;;1.70;1.10;;;;;;;13.58;100.00;99753.16;6170955;28;20249;-69
2023/10/14 03:01:12;;;;;;;1.90;0.97;;;;;;;13.60;100.00;99772.78;6167882;28;20978;-70
2023/10/14 03:04:40;;;;;;;1.37;0.93;;;;;;;13.67;100.00;99763.94;6153561;28;20235;-69
2023/10/14 03:08:09;;;;;;;2.40;0.90;;;;;;;13.61;100.00;99776.34;6160913;28;20259;-69
2023/10/14 03:11:31;;;;;;;2.17;0.93;;;;;;;13.52;100.00;99780.13;6174473;28;20230;-68
2023/10/14 03:14:53;;;;;;;1.87;0.80;;;;;;;13.42;100.00;99782.25;6161308;28;20234;-69
2023/10/14 03:18:16;;;;;;;6.07;3.00;;;;;;;13.34;100.00;99804.81;6175289;28;20254;-70
2023/10/14 03:21:52;;;;;;;2.50;1.20;;;;;;;13.43;100.00;99802.91;6163412;28;20238;-69
2023/10/14 03:25:16;;;;;;;1.50;0.97;;;;;;;13.48;100.00;99800.47;6149313;28;20249;-69
2023/10/14 03:28:38;;;;;;;3.53;1.20;;;;;;;13.53;100.00;99812.47;6166827;28;20235;-70
2023/10/14 03:31:58;;;;;;;2.97;1.00;;;;;;;13.52;100.00;99818.91;6161147;28;20242;-69
2023/10/14 03:35:21;;;;;;;8.23;2.20;;;;;;;13.47;100.00;99826.72;6175215;28;20234;-69
2023/10/14 03:38:46;;;;;;;2.67;1.70;;;;;;;13.34;100.00;99829.19;6148026;28;20238;-68
2023/10/14 03:42:11;;;;;;;4.10;1.13;;;;;;;13.16;100.00;99827.78;6158332;28;20239;-69
2023/10/14 03:45:31;;;;;;;4.30;1.60;;;;;;;13.15;100.00;99845.03;6158907;28;20771;-68
2023/10/14 03:48:54;;;;;;;3.27;1.33;;;;;;;13.05;100.00;99847.97;6159135;28;20278;-69
2023/10/14 03:52:15;;;;;;;3.13;1.77;;;;;;;13.28;100.00;99856.13;6160719;28;20321;-68
2023/10/14 03:55:39;;;;;;;3.73;1.67;;;;;;;12.99;100.00;99870.28;6172910;28;20230;-70
2023/10/14 03:59:03;;;;;;;6.47;1.70;;;;;;;13.06;100.00;99882.09;6163535;28;20230;-68
2023/10/14 04:02:25;;;;;;;6.53;1.93;;;;;;;12.97;100.00;99885.00;6166332;28;20972;-68
2023/10/14 04:05:52;;;;;;;2.13;1.37;;;;;;;12.80;100.00;99884.22;6172001;28;20325;-68
2023/10/14 04:09:21;;;;;;;2.00;1.23;;;;;;;12.75;100.00;99895.56;6169856;28;20261;-69
2023/10/14 04:12:53;;;;;;;8.13;2.40;;;;;;;12.61;100.00;99896.28;6169012;28;20241;-69
2023/10/14 04:16:14;;;;;;;3.47;1.53;;;;;;;12.58;100.00;99902.03;6167765;28;20583;-69
2023/10/14 04:19:44;;;;;;;2.30;1.33;;;;;;;12.51;100.00;99909.16;6152723;28;20238;-68
2023/10/14 04:23:19;;;;;;;3.87;1.47;;;;;;;12.53;100.00;99917.09;6158778;28;20238;-68
2023/10/14 04:26:41;;;;;;;2.27;1.33;;;;;;;12.53;100.00;99925.22;6170359;28;20233;-69
2023/10/14 04:30:11;;;;;;;5.10;1.27;;;;;;;12.41;100.00;99932.81;6172140;28;20230;-69
2023/10/14 04:33:44;;;;;;;8.07;2.07;;;;;;;12.38;100.00;99943.13;6153796;28;20600;-69
2023/10/14 04:37:08;;;;;;;2.23;1.27;;;;;;;12.35;100.00;99957.00;6163266;28;20234;-68
2023/10/14 04:40:38;;;;;;;3.13;1.30;;;;;;;12.44;100.00;99959.50;6173164;28;20238;-69
2023/10/14 04:44:02;;;;;;;2.53;1.47;;;;;;;12.44;100.00;99961.38;6163723;28;20532;-70
2023/10/14 04:47:35;;;;;;;4.00;1.90;;;;;;;12.39;100.00;99961.88;6173396;28;20605;-68
2023/10/14 04:50:57;;;;;;;17.40;2.53;;;;;;;12.46;100.00;99968.31;6159540;28;20247;-69
2023/10/14 04:54:20;;;;;;;2.60;1.60;;;;;;;12.45;100.00;99985.56;6171788;28;20230;-69
2023/10/14 04:57:40;;;;;;;2.63;1.10;;;;;;;12.43;100.00;99992.13;6166642;28;20227;-68
2023/10/14 05:01:03;;;;;;;6.40;1.73;;;;;;;12.39;100.00;100004.31;6159315;28;20230;-68
2023/10/14 05:04:30;;;;;;;8.33;2.50;;;;;;;12.45;100.00;99998.22;6169579;28;20221;-70
2023/10/14 05:07:51;;;;;;;4.77;1.90;;;;;;;12.38;100.00;100013.41;6166218;28;20504;-68
2023/10/14 05:11:13;;;;;;;4.60;1.33;;;;;;;12.31;100.00;100015.94;6166000;28;20333;-69
2023/10/14 05:14:37;;;;;;;4.30;2.70;;;;;;;12.40;100.00;100027.59;6168637;28;20318;-69
2023/10/14 05:18:03;;;;;;;5.60;1.47;;;;;;;12.42;100.00;100023.72;6161303;28;20239;-69
2023/10/14 05:21:36;;;;;;;5.00;1.50;;;;;;;12.35;100.00;100035.38;6172206;28;20251;-68
2023/10/14 05:25:03;;;;;;;3.33;1.40;;;;;;;12.55;100.00;100052.94;6162823;28;20234;-69
2023/10/14 05:28:29;;;;;;;7.33;1.83;;;;;;;12.49;100.00;100056.34;6158102;28;20230;-69
2023/10/14 05:31:52;;;;;;;2.60;1.33;;;;;;;12.47;100.00;100063.75;6172555;28;20608;-68
2023/10/14 05:35:12;;;;;;;2.33;1.50;;;;;;;12.48;100.00;100078.97;6138997;28;20239;-69
2023/10/14 05:38:34;;;;;;;8.43;1.73;;;;;;;12.52;100.00;100074.91;6163318;28;20237;-69
2023/10/14 05:41:59;;;;;;;3.70;1.33;;;;;;;12.49;100.00;100076.09;6162915;28;20231;-69
2023/10/14 05:45:21;;;;;;;2.63;1.47;;;;;;;12.48;100.00;100087.06;6160950;28;20222;-69
2023/10/14 05:48:41;;;;;;;2.27;1.10;;;;;;;12.46;100.00;100099.91;6160108;28;20238;-69
2023/10/14 05:52:03;;;;;;;4.33;2.17;;;;;;;12.39;100.00;100109.72;6170730;28;20258;-68
2023/10/14 05:55:25;;;;;;;4.10;1.80;;;;;;;12.37;100.00;100114.44;6173115;28;20604;-69
2023/10/14 05:58:46;;;;;;;5.27;2.00;;;;;;;12.25;100.00;100130.09;6157230;28;20246;-69
2023/10/14 06:02:08;;;;;;;4.70;2.40;;;;;;;12.40;100.00;100128.47;6154453;28;20231;-69
2023/10/14 06:05:30;;;;;;;5.60;2.23;;;;;;;12.28;100.00;100147.84;6165045;28;20235;-69
2023/10/14 06:08:53;;;;;;;5.93;2.17;;;;;;;12.28;100.00;100164.06;6175399;28;20655;-68
2023/10/14 06:12:16;;;;;;;9.33;2.13;;;;;;;12.33;100.00;100150.94;6149081;28;21104;-69
2023/10/14 06:15:38;;;;;;;4.90;2.10;;;;;;;12.22;100.00;100167.44;6172003;28;20229;-69
2023/10/14 06:19:00;;;;;;;2.27;1.50;;;;;;;12.21;100.00;100163.88;6153023;28;20242;-69
2023/10/14 06:22:22;;;;;;;5.83;1.87;;;;;;;12.11;100.00;100176.69;6160075;28;20221;-68
2023/10/14 06:25:43;;;;;;;2.97;1.83;;;;;;;12.21;100.00;100184.66;6140892;28;20841;-69
2023/10/14 06:29:09;;;;;;;4.60;2.97;;;;;;;12.18;100.00;100193.09;6158914;28;20298;-69
2023/10/14 06:32:30;;;;;;;4.20;2.00;;;;;;;12.21;100.00;100207.13;6156569;28;20256;-69
2023/10/14 06:35:52;;;;;;;3.97;2.33;;;;;;;12.12;100.00;100213.47;6161595;28;20234;-69
2023/10/14 06:39:14;;;;;;;4.40;1.20;;;;;;;12.19;100.00;100224.50;6148867;28;20238;-69
2023/10/14 06:42:40;;;;;;;5.63;2.03;;;;;;;12.11;100.00;100237.97;6158172;28;20609;-68
2023/10/14 06:46:04;;;;;;;4.23;2.10;;;;;;;12.07;100.00;100237.47;6158120;28;20226;-68
2023/10/14 06:49:32;;;;;;;4.27;2.60;;;;;;;12.19;100.00;100238.00;6169417;28;20229;-70
2023/10/14 06:52:58;;;;;;;5.90;2.43;;;;;;;12.35;100.00;100251.63;6152763;28;20277;-68
2023/10/14 06:56:20;;;;;;;3.77;1.60;;;;;;;12.53;100.00;100261.31;6156584;28;20551;-68
2023/10/14 06:59:42;;;;;;;11.10;2.70;;;;;;;12.62;100.00;100273.81;6163043;28;20759;-69
2023/10/14 07:03:10;;;;;;;14.00;2.87;;;;;;;12.48;100.00;100266.34;6171979;28;20230;-68
2023/10/14 07:06:31;;;;;;;6.97;2.30;;;;;;;12.47;100.00;100271.94;6157835;28;20233;-68
2023/10/14 07:09:52;;;;;;;6.23;2.10;;;;;;;12.40;100.00;100285.25;6162108;28;20318;-69
2023/10/14 07:13:13;;;;;;;4.43;1.93;;;;;;;12.31;100.00;100291.63;6166082;28;21070;-68
2023/10/14 07:16:35;;;;;;;5.20;2.27;;;;;;;12.78;100.00;100306.34;6162723;28;20226;-68
2023/10/14 07:19:57;;;;;;;8.53;2.17;;;;;;;12.74;100.00;100312.25;6157004;28;20322;-68
2023/10/14 07:23:18;;;;;;;4.47;2.00;;;;;;;12.68;100.00;100305.63;6167482;28;20318;-68
2023/10/14 07:26:39;;;;;;;4.73;1.77;;;;;;;12.34;100.00;100321.03;6156032;28;20591;-68
2023/10/14 07:30:01;;;;;;;9.27;2.40;;;;;;;12.21;100.00;100320.63;6163173;28;20227;-69
2023/10/14 07:33:22;;;;;;;3.03;2.00;;;;;;;12.29;100.00;100334.16;6165230;28;20234;-68
2023/10/14 07:36:44;;;;;;;6.30;1.93;;;;;;;12.29;100.00;100341.41;6160501;28;20288;-68
2023/10/14 07:40:11;;;;;;;5.53;2.17;;;;;;;12.58;100.00;100344.63;6165932;28;20822;-69
2023/10/14 07:43:33;;;;;;;3.23;1.73;;;;;;;12.45;100.00;100350.50;6148334;28;20234;-69
2023/10/14 07:46:55;;;;;;;7.07;1.97;;;;;;;12.72;100.00;100363.78;6154671;28;20595;-68
2023/10/14 07:50:16;;;;;;;3.10;2.27;;;;;;;12.77;100.00;100366.88;6166333;28;20545;-68
2023/10/14 07:53:40;;;;;;;5.03;2.00;;;;;;;12.82;100.00;100372.66;6163154;28;20229;-68
2023/10/14 07:57:00;;;;;;;2.70;1.23;;;;;;;12.87;100.00;100372.13;6152988;28;20238;-68
2023/10/14 08:00:36;;;;;;;5.57;1.80;;;;;;;12.81;100.00;100380.91;6157729;28;20230;-69
2023/10/14 08:03:57;;;;;;;5.77;2.90;;;;;;;13.01;100.00;100373.38;6167646;28;20254;-69
2023/10/14 08:07:18;;;;;;;4.07;2.30;;;;;;;13.18;100.00;100389.56;6158717;28;20314;-69
2023/10/14 08:10:45;;;;;;;3.23;1.90;;;;;;;13.14;100.00;100398.97;6157909;28;20230;-69
2023/10/14 08:14:09;;;;;;;5.60;2.17;;;;;;;13.27;100.00;100391.25;6166782;28;20230;-70
2023/10/14 08:17:30;;;;;;;3.77;1.83;;;;;;;13.20;100.00;100394.78;6156819;28;20352;-69
2023/10/14 08:20:53;;;;;;;6.87;2.07;;;;;;;13.45;100.00;100407.38;6164095;28;20226;-70
2023/10/14 08:24:15;;;;;;;8.23;2.97;;;;;;;13.64;100.00;100413.31;6160778;28;20369;-69
2023/10/14 08:27:37;;;;;;;7.20;1.93;;;;;;;13.57;100.00;100414.16;6162400;28;20325;-69
2023/10/14 08:30:58;;;;;;;4.43;2.10;;;;;;;13.70;100.00;100438.06;6167317;28;20242;-68
2023/10/14 08:34:19;;;;;;;8.87;2.30;;;;;;;14.12;100.00;100452.34;6158945;28;20238;-68
2023/10/14 08:37:40;;;;;;;6.07;1.97;;;;;;;13.86;100.00;100460.59;6160050;28;20663;-68
2023/10/14 08:41:01;;;;;;;2.47;1.10;;;;;;;13.42;100.00;100464.56;6164163;28;20605;-69
2023/10/14 08:44:31;;;;;;;7.07;1.80;;;;;;;13.42;100.00;100459.13;6159187;28;20234;-69
2023/10/14 08:47:54;;;;;;;2.90;2.30;;;;;;;13.46;100.00;100463.22;6169534;28;20245;-68
2023/10/14 08:51:15;;;;;;;10.13;2.70;;;;;;;14.02;100.00;100455.19;6171019;28;20317;-69
2023/10/14 08:54:37;;;;;;;8.17;2.33;;;;;;;14.31;100.00;100458.28;6165619;28;20233;-69
2023/10/14 08:58:01;;;;;;;5.93;1.83;;;;;;;14.02;100.00;100471.44;6168605;28;20234;-69
2023/10/14 09:01:24;;;;;;;4.10;1.87;;;;;;;14.12;100.00;100474.00;6166455;28;20234;-69
2023/10/14 09:04:45;;;;;;;2.87;2.00;;;;;;;14.62;100.00;100477.41;6163078;28;20234;-69
2023/10/14 09:08:08;;;;;;;3.23;1.57;;;;;;;14.09;100.00;100479.75;6172722;28;20238;-70
2023/10/14 09:11:33;;;;;;;4.03;2.33;;;;;;;14.18;100.00;100484.19;6163767;28;20241;-69
2023/10/14 09:14:54;;;;;;;8.17;2.90;;;;;;;14.35;100.00;100489.44;6162385;28;20331;-68
2023/10/14 09:18:18;;;;;;;4.87;2.47;;;;;;;14.45;100.00;100507.44;6169216;28;20246;-69
2023/10/14 09:21:44;;;;;;;5.27;2.60;;;;;;;14.89;100.00;100489.75;6175736;28;20259;-70
2023/10/14 09:25:07;;;;;;;3.27;2.13;;;;;;;15.34;100.00;100497.22;6169036;28;20223;-68
2023/10/14 09:28:32;;;;;;;4.23;1.90;;;;;;;15.68;100.00;100508.66;6164244;28;20235;-67
2023/10/14 09:31:53;;;;;;;3.67;2.60;;;;;;;17.14;89.79;100520.06;6168565;28;20233;-68
2023/10/14 09:35:15;;;;;;;2.67;1.52;;;;;;;17.99;83.43;100513.03;6155727;28;20294;-68
2023/10/14 09:38:36;;;;;;;6.15;2.47;;;;;;;17.41;84.36;100522.97;6165607;28;20230;-69
2023/10/14 09:41:58;;;;;;;6.30;3.78;;;;;;;16.29;88.05;100537.66;6161659;28;20234;-69
2023/10/14 09:45:20;;;;;;;4.53;1.77;;;;;;;18.27;78.40;100533.91;6168278;28;20272;-69
2023/10/14 09:48:43;;;;;;;6.45;2.38;;;;;;;19.63;73.45;100531.66;6158895;28;20249;-68
2023/10/14 09:52:07;;;;;;;4.10;1.73;;;;;;;19.31;70.01;100518.63;6150031;28;20230;-68
2023/10/14 09:55:28;;;;;;;2.13;1.88;;;;;;;20.02;65.52;100520.88;6163539;28;20234;-69
2023/10/14 09:58:50;;;;;;;5.10;1.73;;;;;;;20.59;62.38;100534.06;6167625;28;20233;-68
2023/10/14 10:02:12;;;;;;;3.05;1.58;;;;;;;18.95;66.66;100543.38;6165671;28;20222;-69
2023/10/14 10:05:39;;;;;;;6.22;2.70;;;;;;;21.01;59.97;100544.63;6168316;28;20355;-70
2023/10/14 10:09:19;;;;;;;3.15;1.40;;;;;;;20.23;57.62;100570.03;6169626;28;20226;-68
2023/10/14 10:12:42;;;;;;;4.85;1.73;;;;;;;19.95;61.01;100580.19;6155377;28;20238;-69
2023/10/14 10:16:04;;;;;;;4.95;1.80;;;;;;;17.31;71.40;100661.38;6162099;28;20234;-69
2023/10/14 10:20:12;;;;;;;2.00;1.80;;;;;;;14.70;87.50;100666.50;6166690;28;20227;-68
2023/10/14 10:23:34;;;;;;;2.08;0.82;;;;;;;13.87;88.94;100668.22;6170451;28;20230;-70
2023/10/14 10:27:08;;;;;;;1.73;0.80;;;;;;;13.00;99.66;100674.72;6165742;28;20234;-69
2023/10/14 10:30:29;;;;;;;1.57;0.80;;;;;;;13.74;100.00;100656.16;6169205;28;20566;-70
2023/10/14 10:33:55;;;;;;;2.73;1.93;;;;;;;14.74;93.74;100657.84;6171349;28;20225;-69
2023/10/14 10:37:18;;;;;;;1.30;0.80;;;;;;;18.91;75.70;100646.75;6168555;28;20230;-69
2023/10/14 10:40:40;;;;;;;1.35;0.80;;;;;;;21.42;61.45;100652.19;6160992;28;20231;-68
2023/10/14 10:44:05;;;;;;;5.25;3.35;;;;;;;24.27;49.13;100647.31;6170069;28;20496;-68
2023/10/14 10:47:29;;;;;;;6.88;3.60;;;;;;;26.30;41.45;100655.91;6169239;28;20230;-69
2023/10/14 10:50:51;;;;;;;3.60;2.88;;;;;;;24.39;43.82;100661.97;6163057;28;20226;-69
2023/10/14 10:54:12;;;;;;;2.55;2.35;;;;;;;25.48;41.38;100661.69;6167737;28;20617;-69
2023/10/14 10:57:35;;;;;;;3.95;1.20;;;;;;;27.76;38.67;100679.97;6170882;28;20363;-69
2023/10/14 11:01:01;;;;;;;7.03;2.63;;;;;;;28.85;35.37;100673.47;6160800;28;20231;-68
2023/10/14 11:04:21;;;;;;;1.63;0.70;;;;;;;24.72;42.23;100676.16;6160986;28;20481;-69
2023/10/14 11:07:43;;;;;;;1.48;0.70;;;;;;;27.63;38.64;100670.94;6152818;28;20596;-69
2023/10/14 11:11:04;;;;;;;2.63;0.98;;;;;;;28.38;36.01;100689.78;6168732;28;20321;-70
2023/10/14 11:14:26;;;;;;;2.88;1.35;;;;;;;25.07;39.68;100677.19;6158524;28;20229;-68
2023/10/14 11:17:51;;;;;;;1.55;0.75;;;;;;;20.93;48.57;100675.53;6167411;28;20654;-69
2023/10/14 11:21:13;;;;;;;2.05;1.42;;;;;;;22.11;48.76;100681.91;6163048;28;20666;-69
2023/10/14 11:24:36;;;;;;;2.47;1.35;;;;;;;24.60;41.63;100678.88;6170320;28;20230;-69
2023/10/14 11:27:57;;;;;;;3.58;1.38;;;;;;;21.78;46.23;100672.88;6160846;28;20226;-69
2023/10/14 11:31:24;;;;;;;2.00;1.00;;;;;;;18.19;57.48;100819.75;6165218;28;20258;-69
2023/10/14 11:34:52;;;;;;;3.83;1.83;;;;;;;14.11;84.12;100795.75;6155876;28;20231;-69
2023/10/14 11:38:14;;;;;;;2.92;1.27;;;;;;;12.92;94.05;100754.00;6152514;28;20253;-69
2023/10/14 11:41:35;;;;;;;3.97;1.50;;;;;;;13.26;98.88;100765.88;6156334;28;21024;-70
2023/10/14 11:44:56;;;;;;;3.45;1.30;;;;;;;13.08;96.26;100735.22;6138216;28;20551;-69
2023/10/14 11:48:22;;;;;;;2.92;1.33;;;;;;;13.39;98.43;100731.09;6154640;28;20230;-70
2023/10/14 11:51:46;;;;;;;1.52;1.40;;;;;;;20.53;65.59;100708.31;6153856;28;20235;-69
2023/10/14 11:55:08;;;;;;;3.72;1.45;;;;;;;23.18;52.16;100706.75;6168385;28;20229;-70
2023/10/14 11:58:33;;;;;;;1.08;0.73;;;;;;;23.74;46.66;100696.56;6161027;28;20230;-69
2023/10/14 12:01:53;;;;;;;1.10;0.80;;;;;;;22.98;47.73;100705.00;6161134;28;20230;-68
2023/10/14 12:05:16;;;;;;;1.00;0.88;;;;;;;23.73;45.96;100692.16;6165076;28;20234;-69
2023/10/14 12:08:39;;;;;;;3.72;1.13;;;;;;;21.02;52.02;100708.09;6155713;28;20600;-68
2023/10/14 12:12:02;;;;;;;3.85;1.42;;;;;;;18.80;54.73;100701.91;6163195;28;20639;-68
2023/10/14 12:15:24;;;;;;;6.07;1.67;;;;;;;17.61;62.44;100710.56;6158921;28;20507;-69
2023/10/14 12:18:45;;;;;;;1.50;0.82;;;;;;;19.90;55.17;100703.13;6156567;28;20225;-68
2023/10/14 12:22:06;;;;;;;2.65;1.33;;;;;;;19.99;52.63;100725.69;6167499;28;20261;-69
2023/10/14 12:25:28;;;;;;;3.60;1.52;;;;;;;20.08;51.99;100699.84;6165054;28;20516;-68
2023/10/14 12:28:50;;;;;;;1.83;0.98;;;;;;;21.08;48.93;100693.53;6163609;28;20222;-69
2023/10/14 12:32:15;;;;;;;2.40;0.95;;;;;;;20.73;47.83;100693.84;6160240;28;20238;-70
2023/10/14 12:35:39;;;;;;;4.30;1.00;;;;;;;20.17;49.92;100685.78;6166982;28;20234;-68
2023/10/14 12:39:06;;;;;;;3.75;1.63;;;;;;;19.62;52.13;100694.06;6164212;28;20261;-69
2023/10/14 12:42:44;;;;;;;5.60;1.98;;;;;;;18.35;54.94;100702.19;6152955;28;20244;-69
2023/10/14 12:46:14;;;;;;;2.90;1.55;;;;;;;17.95;57.72;100698.06;6166950;28;20261;-69
2023/10/14 12:49:36;;;;;;;3.40;1.00;;;;;;;17.47;58.62;100723.94;6162913;28;20230;-69
2023/10/14 12:52:59;;;;;;;3.30;1.08;;;;;;;17.62;57.72;100712.22;6168543;28;20280;-70
2023/10/14 12:56:21;;;;;;;1.10;1.00;;;;;;;16.50;61.57;100715.59;6158991;28;20664;-69
2023/10/14 12:59:43;;;;;;;4.82;1.45;;;;;;;16.46;63.08;100710.66;6168323;28;20230;-69
2023/10/14 13:03:09;;;;;;;1.88;1.40;;;;;;;17.08;61.33;100715.06;6166920;28;20243;-69
2023/10/14 13:06:31;;;;;;;6.18;1.65;;;;;;;16.45;61.81;100715.28;6165103;28;20235;-68
2023/10/14 13:09:52;;;;;;;7.75;1.83;;;;;;;18.61;56.48;100712.63;6161442;28;20221;-70
2023/10/14 13:13:13;;;;;;;3.33;1.58;;;;;;;17.99;56.49;100715.75;6171487;28;20233;-69
2023/10/14 13:16:36;;;;;;;2.55;1.67;;;;;;;16.37;62.96;100718.03;6168845;28;20258;-68
2023/10/14 13:19:57;;;;;;;3.83;1.35;;;;;;;15.47;69.57;100714.88;6167630;28;20238;-69
2023/10/14 13:23:18;;;;;;;2.88;1.67;;;;;;;15.48;72.42;100754.66;6161659;28;20239;-68
2023/10/14 13:26:39;;;;;;;3.92;1.80;;;;;;;15.02;74.90;100737.94;6165133;28;20575;-69
2023/10/14 13:30:08;;;;;;;5.20;1.98;;;;;;;15.20;78.60;100754.09;6167862;28;20325;-67
2023/10/14 13:33:30;;;;;;;8.17;2.23;;;;;;;15.16;85.10;100739.97;6163998;28;20360;-69
2023/10/14 13:36:51;;;;;;;5.93;2.17;;;;;;;16.17;76.81;100727.63;6166671;28;20229;-69
2023/10/14 13:40:13;;;;;;;4.93;1.83;;;;;;;16.14;80.23;100762.50;6172073;28;20533;-68
2023/10/14 13:43:34;;;;;;;6.13;2.20;;;;;;;15.72;72.41;100731.00;6164598;28;20687;-69
2023/10/14 13:46:55;;;;;;;6.13;2.00;;;;;;;14.87;76.30;100738.78;6164073;28;20227;-69
2023/10/14 13:50:21;;;;;;;4.17;1.93;;;;;;;15.95;74.20;100731.97;6166551;28;20250;-68
2023/10/14 13:53:44;;;;;;;2.37;1.77;;;;;;;15.39;76.95;100734.75;6165202;28;20333;-69
2023/10/14 13:57:05;;;;;;;7.78;2.88;;;;;;;14.86;78.63;100743.34;6166689;28;20226;-68
2023/10/14 14:00:36;;;;;;;7.67;2.00;;;;;;;15.34;77.37;100744.41;6166692;28;20230;-67
2023/10/14 14:03:58;;;;;;;4.53;2.40;;;;;;;15.15;82.69;100756.44;6166102;28;20238;-68
2023/10/14 14:07:20;;;;;;;6.37;2.40;;;;;;;15.11;85.46;100755.09;6170002;28;20640;-69
2023/10/14 14:10:42;;;;;;;6.00;2.20;;;;;;;14.43;85.96;100762.56;6157221;28;20318;-68
2023/10/14 14:14:02;;;;;;;3.47;1.80;;;;;;;13.68;96.46;100798.53;6167760;28;20238;-69
2023/10/14 14:17:25;;;;;;;3.73;1.90;;;;;;;12.38;100.00;100824.34;6166449;28;20234;-70
2023/10/14 14:20:47;;;;;;;8.40;2.50;;;;;;;11.95;100.00;100817.69;6153109;28;20270;-70
2023/10/14 14:24:09;;;;;;;4.97;2.63;;;;;;;11.81;100.00;100837.06;6162447;28;20238;-69
2023/10/14 14:27:30;;;;;;;3.30;1.87;;;;;;;11.80;100.00;100832.66;6169020;28;22702;-69
2023/10/14 14:30:51;;;;;;;2.57;1.67;;;;;;;11.91;100.00;100812.75;6159410;28;20227;-70
2023/10/14 14:34:12;;;;;;;5.77;1.97;;;;;;;12.27;100.00;100833.50;6169947;28;20552;-69
2023/10/14 14:37:33;;;;;;;3.80;1.77;;;;;;;12.01;100.00;100856.78;6165173;28;20219;-69
2023/10/14 14:40:55;;;;;;;5.80;2.07;;;;;;;12.47;100.00;100835.16;6161522;28;20242;-68
2023/10/14 14:44:16;;;;;;;4.30;1.80;;;;;;;12.87;100.00;100820.41;6151109;28;20522;-69
2023/10/14 14:47:37;;;;;;;5.80;1.73;;;;;;;12.77;100.00;100832.13;6161700;28;20250;-69
2023/10/14 14:50:59;;;;;;;2.50;1.40;;;;;;;13.33;100.00;100822.97;6164439;28;20241;-71
2023/10/14 14:54:22;;;;;;;5.63;2.63;;;;;;;14.10;100.00;100795.94;6160316;28;20243;-69
2023/10/14 14:57:46;;;;;;;3.87;1.93;;;;;;;14.77;96.45;100809.47;6155511;28;20231;-69
2023/10/14 15:01:16;;;;;;;4.03;2.37;;;;;;;13.46;100.00;100808.00;6160337;28;20239;-69
2023/10/14 15:04:38;;;;;;;3.50;1.87;;;;;;;13.09;100.00;100796.50;6167563;28;20238;-69
2023/10/14 15:08:00;;;;;;;5.20;2.33;;;;;;;12.55;100.00;100800.09;6158538;28;20226;-69
2023/10/14 15:11:20;;;;;;;4.97;1.93;;;;;;;12.44;100.00;100797.59;6166541;28;20227;-69
2023/10/14 15:14:42;;;;;;;3.20;2.00;;;;;;;12.48;99.89;100800.81;6158735;28;20274;-69
2023/10/14 15:18:04;;;;;;;2.40;1.53;;;;;;;12.29;95.94;100785.56;6167049;28;20239;-70
2023/10/14 15:21:24;;;;;;;2.37;1.77;;;;;;;12.75;94.40;100809.78;6162663;28;20230;-68
2023/10/14 15:24:46;;;;;;;2.80;1.37;;;;;;;12.69;93.31;100805.00;6165951;28;20325;-69
2023/10/14 15:28:11;;;;;;;3.33;3.00;;;;;;;12.70;93.08;100809.38;6161052;28;20636;-68
2023/10/14 15:31:33;;;;;;;7.10;2.33;;;;;;;12.77;92.75;100815.03;6165423;28;20234;-68
2023/10/14 15:34:54;;;;;;;3.23;2.17;;;;;;;12.87;93.22;100817.69;6167869;28;20229;-68
2023/10/14 15:38:15;;;;;;;3.40;1.83;;;;;;;12.71;94.39;100826.47;6158726;28;20608;-69
2023/10/14 15:41:36;;;;;;;4.00;2.00;;;;;;;12.61;95.03;100834.66;6161351;28;20238;-69